Time;durP1;ratioP1;P1;durP2;ratioP2;P2;SDS_P1;SDS_P2;PMS_P1;PMS_P2;Temp;Humidity;BMP_temperature;BMP_pressure;BME280_temperature;BME280_humidity;BME280_pressure;Samples;Min_cycle;Max_cycle;Signal;HPM_P1;HPM_P2
2023/06/01 00:01:50;;;;;;;2.67;1.40;;;12.40;64.80;;;;;;5085258;28;20036;-55
2023/06/01 00:04:16;;;;;;;3.33;1.50;;;12.40;64.80;;;;;;5087800;28;20074;-57
2023/06/01 00:06:42;;;;;;;1.50;1.20;;;12.30;68.70;;;;;;5087815;28;20043;-57
2023/06/01 00:09:08;;;;;;;4.28;1.58;;;12.30;71.80;;;;;;5074524;28;20040;-57
2023/06/01 00:11:34;;;;;;;1.85;1.33;;;12.20;69.50;;;;;;5085483;28;20036;-53
2023/06/01 00:13:59;;;;;;;2.75;1.35;;;12.10;69.10;;;;;;5075031;28;20143;-56
2023/06/01 00:16:25;;;;;;;4.47;1.60;;;12.10;69.20;;;;;;5090232;28;20511;-56
2023/06/01 00:18:52;;;;;;;3.45;2.00;;;12.10;69.50;;;;;;5101632;28;20028;-55
2023/06/01 00:21:18;;;;;;;3.20;1.50;;;12.00;69.60;;;;;;5080722;28;20036;-57
2023/06/01 00:23:44;;;;;;;4.65;1.95;;;12.00;71.90;;;;;;5069308;28;20086;-55
2023/06/01 00:26:10;;;;;;;6.30;1.92;;;11.90;71.00;;;;;;5108409;28;20116;-57
2023/06/01 00:28:36;;;;;;;4.22;1.67;;;11.90;70.40;;;;;;5097716;28;19912;-56
2023/06/01 00:31:02;;;;;;;2.60;1.50;;;11.90;70.40;;;;;;5100386;28;20530;-57
2023/06/01 00:33:27;;;;;;;1.95;1.42;;;11.90;70.90;;;;;;5071909;28;20049;-56
2023/06/01 00:35:53;;;;;;;3.42;1.77;;;11.80;71.40;;;;;;5086616;28;20032;-57
2023/06/01 00:38:18;;;;;;;3.35;1.42;;;11.80;72.60;;;;;;5080955;28;20040;-56
2023/06/01 00:40:44;;;;;;;2.58;1.73;;;11.80;71.80;;;;;;5095998;28;20096;-57
2023/06/01 00:43:10;;;;;;;2.75;1.33;;;11.80;72.10;;;;;;5091874;28;20036;-55
2023/06/01 00:45:39;;;;;;;2.08;1.52;;;11.70;72.00;;;;;;5100379;28;20600;-57
2023/06/01 00:48:05;;;;;;;4.80;1.63;;;11.70;72.60;;;;;;5099301;28;20487;-56
2023/06/01 00:50:31;;;;;;;3.58;1.90;;;11.70;74.70;;;;;;5088016;28;20114;-55
2023/06/01 00:52:58;;;;;;;1.60;1.20;;;11.70;73.50;;;;;;5096194;28;20032;-57
2023/06/01 00:55:24;;;;;;;3.85;1.90;;;11.70;74.80;;;;;;5089432;28;20032;-55
2023/06/01 00:57:50;;;;;;;2.17;1.50;;;11.60;75.40;;;;;;5105338;28;20034;-57
2023/06/01 01:00:17;;;;;;;2.40;1.50;;;11.60;74.90;;;;;;5088675;28;20318;-58
2023/06/01 01:02:49;;;;;;;2.83;1.75;;;11.60;77.10;;;;;;5098637;28;20036;-56
2023/06/01 01:05:16;;;;;;;2.00;1.27;;;11.60;76.60;;;;;;5090241;28;20142;-57
2023/06/01 01:07:58;;;;;;;2.55;1.63;;;11.60;76.30;;;;;;5085511;28;20028;-56
2023/06/01 01:10:37;;;;;;;4.05;1.25;;;11.60;75.80;;;;;;5076448;28;20029;-55
2023/06/01 01:13:47;;;;;;;3.42;1.55;;;11.60;78.80;;;;;;5094683;28;20674;-55
2023/06/01 01:16:59;;;;;;;2.72;1.40;;;11.50;78.40;;;;;;5005947;28;20216;-57
2023/06/01 01:19:50;;;;;;;3.58;1.60;;;11.50;77.80;;;;;;4899394;29;20050;-57
2023/06/01 01:22:56;;;;;;;4.03;1.63;;;11.50;77.80;;;;;;5067805;28;20044;-57
2023/06/01 01:25:47;;;;;;;2.92;1.20;;;11.50;79.00;;;;;;5092107;28;20392;-57
2023/06/01 01:28:25;;;;;;;1.98;1.35;;;11.50;77.00;;;;;;5102101;28;20024;-57
2023/06/01 01:30:54;;;;;;;2.25;1.17;;;11.40;78.90;;;;;;5078273;28;20036;-56
2023/06/01 01:33:21;;;;;;;1.88;1.48;;;11.40;77.30;;;;;;5084783;28;20027;-57
2023/06/01 01:35:48;;;;;;;2.55;1.58;;;11.40;77.20;;;;;;5096131;28;20043;-57
2023/06/01 01:38:14;;;;;;;3.35;1.48;;;11.40;78.20;;;;;;5105303;28;20028;-56
2023/06/01 01:40:39;;;;;;;1.90;1.42;;;11.40;78.20;;;;;;5088750;28;20582;-57
2023/06/01 01:43:05;;;;;;;1.98;1.23;;;11.40;78.30;;;;;;5097955;28;20036;-57
2023/06/01 01:45:31;;;;;;;3.22;1.38;;;11.30;78.00;;;;;;5087401;28;20036;-57
2023/06/01 01:48:10;;;;;;;1.65;1.35;;;11.30;79.10;;;;;;5104928;28;20532;-56
2023/06/01 01:50:58;;;;;;;3.05;1.50;;;11.30;78.40;;;;;;5085134;28;20598;-55
2023/06/01 01:53:26;;;;;;;4.30;1.52;;;11.20;78.70;;;;;;5092822;28;20027;-56
2023/06/01 01:55:53;;;;;;;4.18;1.30;;;11.20;78.70;;;;;;5090458;28;20243;-57
2023/06/01 01:58:19;;;;;;;2.40;1.27;;;11.20;78.70;;;;;;5095252;28;20039;-57
2023/06/01 02:00:45;;;;;;;5.13;1.52;;;11.10;79.30;;;;;;5109899;28;20281;-57
2023/06/01 02:03:16;;;;;;;2.28;1.23;;;11.10;79.30;;;;;;5099361;28;20513;-56
2023/06/01 02:05:42;;;;;;;2.03;1.30;;;11.00;79.30;;;;;;5095152;28;20076;-55
2023/06/01 02:08:08;;;;;;;3.65;1.60;;;11.00;81.00;;;;;;5098726;28;20032;-57
2023/06/01 02:10:33;;;;;;;3.47;1.33;;;11.00;80.70;;;;;;5090420;28;20035;-57
2023/06/01 02:12:59;;;;;;;2.25;1.38;;;10.90;81.50;;;;;;5107460;28;20038;-57
2023/06/01 02:15:24;;;;;;;3.10;1.40;;;10.90;81.90;;;;;;5095831;28;20023;-57
2023/06/01 02:17:51;;;;;;;2.25;1.40;;;10.80;82.00;;;;;;5108002;28;20499;-55
2023/06/01 02:20:17;;;;;;;2.58;1.50;;;10.80;82.30;;;;;;5093937;28;20360;-54
2023/06/01 02:22:42;;;;;;;1.75;1.40;;;10.70;82.70;;;;;;5109016;28;20114;-56
2023/06/01 02:25:08;;;;;;;3.38;1.52;;;10.70;83.00;;;;;;5092952;28;20031;-55
2023/06/01 02:27:34;;;;;;;3.22;1.35;;;10.60;83.10;;;;;;5109928;28;20137;-54
2023/06/01 02:29:59;;;;;;;2.90;1.45;;;10.60;83.70;;;;;;5092196;28;20038;-54
2023/06/01 02:32:26;;;;;;;2.53;1.60;;;10.60;84.90;;;;;;5109459;28;20039;-57
2023/06/01 02:34:51;;;;;;;1.65;1.17;;;10.50;86.30;;;;;;5090917;28;20793;-55
2023/06/01 02:37:17;;;;;;;3.25;1.60;;;10.50;85.70;;;;;;5109842;28;20034;-56
2023/06/01 02:39:42;;;;;;;2.00;1.38;;;10.50;86.00;;;;;;5088386;28;20114;-54
2023/06/01 02:42:08;;;;;;;1.83;1.20;;;10.50;90.40;;;;;;5107716;28;20023;-55
2023/06/01 02:44:33;;;;;;;2.97;1.60;;;10.40;88.10;;;;;;5109824;28;20027;-53
2023/06/01 02:46:59;;;;;;;2.90;1.52;;;10.40;89.20;;;;;;5088676;28;20047;-56
2023/06/01 02:49:25;;;;;;;2.47;1.27;;;10.30;90.10;;;;;;5110200;28;20095;-55
2023/06/01 02:51:50;;;;;;;2.85;1.45;;;10.30;88.30;;;;;;5089998;28;20091;-56
2023/06/01 02:54:16;;;;;;;1.88;1.40;;;10.30;88.60;;;;;;5107283;28;20395;-54
2023/06/01 02:56:41;;;;;;;2.25;1.30;;;10.30;88.90;;;;;;5089844;28;20028;-56
2023/06/01 02:59:06;;;;;;;3.50;1.50;;;10.30;89.10;;;;;;5088743;28;20387;-55
2023/06/01 03:01:35;;;;;;;3.78;1.38;;;10.30;89.30;;;;;;5108745;28;20063;-54
2023/06/01 03:04:04;;;;;;;2.25;1.52;;;10.30;89.30;;;;;;5087607;28;20032;-54
2023/06/01 03:06:36;;;;;;;2.50;1.42;;;10.30;89.40;;;;;;5106372;28;20051;-53
2023/06/01 03:09:01;;;;;;;2.10;1.80;;;10.40;90.30;;;;;;5085055;28;20062;-54
2023/06/01 03:11:27;;;;;;;2.22;1.48;;;10.30;90.40;;;;;;5108837;28;20472;-56
2023/06/01 03:13:52;;;;;;;3.10;1.40;;;10.40;90.20;;;;;;5087685;28;20052;-56
2023/06/01 03:16:18;;;;;;;2.33;1.50;;;10.40;90.10;;;;;;5107278;28;20031;-57
2023/06/01 03:18:43;;;;;;;2.20;1.58;;;10.40;90.20;;;;;;5087790;28;20028;-56
2023/06/01 03:21:09;;;;;;;3.92;1.75;;;10.50;90.30;;;;;;5108653;28;20110;-53
2023/06/01 03:23:35;;;;;;;3.78;1.77;;;10.50;91.00;;;;;;5087436;28;20036;-51
2023/06/01 03:26:03;;;;;;;5.43;1.70;;;10.60;90.50;;;;;;5102490;28;20048;-54
2023/06/01 03:28:29;;;;;;;3.30;1.50;;;10.70;90.70;;;;;;5089637;28;20020;-52
2023/06/01 03:30:55;;;;;;;5.05;1.67;;;10.70;91.50;;;;;;5106060;28;20035;-54
2023/06/01 03:33:21;;;;;;;4.00;1.77;;;10.80;91.50;;;;;;5102197;28;20034;-53
2023/06/01 03:35:49;;;;;;;3.55;1.45;;;10.80;91.20;;;;;;5098691;28;20230;-53
2023/06/01 03:38:15;;;;;;;2.63;1.20;;;11.00;91.30;;;;;;5095027;28;20035;-54
2023/06/01 03:40:40;;;;;;;4.10;1.52;;;11.20;91.00;;;;;;5106585;28;20502;-50
2023/06/01 03:43:06;;;;;;;2.53;1.65;;;11.70;91.00;;;;;;5108201;28;20055;-54
2023/06/01 03:45:31;;;;;;;2.67;1.58;;;12.40;90.10;;;;;;5093364;28;20415;-53
2023/06/01 03:47:56;;;;;;;2.42;1.60;;;13.10;86.70;;;;;;5110583;28;20023;-55
2023/06/01 03:50:22;;;;;;;2.92;1.90;;;13.90;83.30;;;;;;5093367;28;20022;-52
2023/06/01 03:52:47;;;;;;;2.83;1.80;;;14.60;79.90;;;;;;5110548;28;20035;-50
2023/06/01 03:55:13;;;;;;;2.05;1.85;;;15.30;76.70;;;;;;5112935;28;20066;-53
2023/06/01 03:57:39;;;;;;;4.35;1.80;;;15.90;73.40;;;;;;5097533;28;20364;-53
2023/06/01 04:00:18;;;;;;;3.17;1.90;;;16.50;70.70;;;;;;5111209;28;20099;-55
2023/06/01 04:02:52;;;;;;;3.80;1.42;;;17.10;68.70;;;;;;5113130;28;20027;-54
2023/06/01 04:05:20;;;;;;;4.18;1.67;;;17.70;65.10;;;;;;5094131;28;20024;-51
2023/06/01 04:07:48;;;;;;;5.75;1.98;;;18.30;63.80;;;;;;5102476;28;20027;-54
2023/06/01 04:10:16;;;;;;;3.90;1.60;;;18.80;61.80;;;;;;5095903;28;20042;-54
2023/06/01 04:12:45;;;;;;;4.05;1.63;;;19.30;60.40;;;;;;5091001;28;20074;-49
2023/06/01 04:15:12;;;;;;;3.75;1.42;;;19.80;58.20;;;;;;5112231;28;20319;-50
2023/06/01 04:17:41;;;;;;;3.03;2.00;;;20.20;56.60;;;;;;5092615;28;20055;-49
2023/06/01 04:20:13;;;;;;;3.10;1.90;;;20.70;53.90;;;;;;5107309;28;20431;-53
2023/06/01 04:22:40;;;;;;;3.38;1.88;;;21.00;50.90;;;;;;5092692;28;20060;-53
2023/06/01 04:25:08;;;;;;;3.45;1.77;;;21.40;49.80;;;;;;5110943;28;20031;-52
2023/06/01 04:27:36;;;;;;;2.03;1.67;;;21.80;48.40;;;;;;5111889;28;20039;-52
2023/06/01 04:30:09;;;;;;;5.53;1.88;;;22.30;46.40;;;;;;5091104;28;20062;-49
2023/06/01 04:32:37;;;;;;;3.33;1.60;;;22.60;44.80;;;;;;5112527;28;20103;-48
2023/06/01 04:35:05;;;;;;;4.07;1.90;;;23.10;43.10;;;;;;5072421;28;20028;-51
2023/06/01 04:37:35;;;;;;;5.65;2.38;;;23.50;41.60;;;;;;5110401;28;20020;-51
2023/06/01 04:40:01;;;;;;;4.63;1.70;;;23.80;38.90;;;;;;5092137;28;20020;-51
2023/06/01 04:42:27;;;;;;;2.55;2.00;;;24.10;37.20;;;;;;5098648;28;20034;-52
2023/06/01 04:44:53;;;;;;;6.70;2.38;;;24.50;35.90;;;;;;5102493;28;20503;-51
2023/06/01 04:47:20;;;;;;;3.50;1.85;;;24.80;34.50;;;;;;5093849;28;20052;-51
2023/06/01 04:49:46;;;;;;;3.47;2.17;;;25.20;32.70;;;;;;5112115;28;20498;-49
2023/06/01 04:52:12;;;;;;;2.85;1.75;;;25.50;31.00;;;;;;5092654;28;20035;-49
2023/06/01 04:54:38;;;;;;;5.53;2.20;;;25.70;29.40;;;;;;5109311;28;20059;-53
2023/06/01 04:57:06;;;;;;;3.85;2.42;;;26.10;28.10;;;;;;5092104;28;20086;-49
2023/06/01 04:59:32;;;;;;;2.58;1.60;;;26.20;26.00;;;;;;5103676;28;20084;-50
2023/06/01 05:01:57;;;;;;;4.97;2.15;;;26.60;25.60;;;;;;5094067;28;20034;-51
2023/06/01 05:04:23;;;;;;;4.22;2.00;;;26.70;24.00;;;;;;5101189;28;20020;-52
2023/06/01 05:06:48;;;;;;;3.55;2.33;;;26.80;23.30;;;;;;5107215;28;20059;-50
2023/06/01 05:09:14;;;;;;;5.65;2.60;;;27.10;22.70;;;;;;5092087;28;20123;-52
2023/06/01 05:11:39;;;;;;;5.65;2.30;;;27.30;21.70;;;;;;5092844;28;20408;-53
2023/06/01 05:14:05;;;;;;;8.10;2.58;;;27.50;20.80;;;;;;5094529;28;20016;-50
2023/06/01 05:16:31;;;;;;;5.47;2.65;;;27.60;19.90;;;;;;5090768;28;20031;-51
2023/06/01 05:18:57;;;;;;;5.75;2.67;;;27.60;18.50;;;;;;5110816;28;20031;-51
2023/06/01 05:21:22;;;;;;;6.25;2.65;;;27.90;18.00;;;;;;5098786;28;20032;-53
2023/06/01 05:23:48;;;;;;;3.33;2.60;;;27.30;18.00;;;;;;5088381;28;20039;-52
2023/06/01 05:26:13;;;;;;;3.25;2.35;;;26.50;18.20;;;;;;5098916;28;20134;-49
2023/06/01 05:28:39;;;;;;;6.65;3.75;;;26.20;18.40;;;;;;5100355;28;20027;-49
2023/06/01 05:31:05;;;;;;;5.15;3.22;;;25.40;18.00;;;;;;5098271;28;20019;-52
2023/06/01 05:33:30;;;;;;;6.80;4.05;;;24.70;18.50;;;;;;5088141;28;20484;-53
2023/06/01 05:35:56;;;;;;;5.88;3.63;;;23.90;19.70;;;;;;5095613;28;20557;-50
2023/06/01 05:38:22;;;;;;;8.15;3.92;;;22.80;21.50;;;;;;5105039;28;20054;-50
2023/06/01 05:40:47;;;;;;;9.05;4.70;;;22.10;22.70;;;;;;5105575;28;20031;-53
2023/06/01 05:43:15;;;;;;;13.32;5.05;;;21.50;23.90;;;;;;5092990;28;20150;-53
2023/06/01 05:45:40;;;;;;;8.93;4.05;;;20.90;25.20;;;;;;5109807;28;20035;-50
2023/06/01 05:48:06;;;;;;;5.97;3.60;;;20.40;26.40;;;;;;5086538;28;20024;-51
2023/06/01 05:50:31;;;;;;;8.73;4.60;;;20.00;27.00;;;;;;5109083;28;20127;-50
2023/06/01 05:52:57;;;;;;;9.15;5.03;;;19.50;28.50;;;;;;5087022;28;20036;-48
2023/06/01 05:55:22;;;;;;;10.35;4.55;;;19.00;30.20;;;;;;5089091;28;20395;-56
2023/06/01 05:57:48;;;;;;;8.95;4.38;;;18.70;32.00;;;;;;5106649;28;20055;-50
2023/06/01 06:00:15;;;;;;;7.45;5.35;;;18.30;33.60;;;;;;5104260;28;20484;-52
2023/06/01 06:02:42;;;;;;;8.77;5.38;;;18.00;35.70;;;;;;5092188;28;20066;-51
2023/06/01 06:05:09;;;;;;;8.13;4.65;;;17.80;36.70;;;;;;5100523;28;20028;-48
2023/06/01 06:07:35;;;;;;;9.88;4.20;;;17.60;37.80;;;;;;5096564;28;20023;-50
2023/06/01 06:10:00;;;;;;;8.52;4.80;;;17.40;39.30;;;;;;5085707;28;20052;-50
2023/06/01 06:12:27;;;;;;;9.38;5.57;;;17.30;43.00;;;;;;5108904;28;20059;-48
2023/06/01 06:14:52;;;;;;;8.70;4.80;;;16.90;49.60;;;;;;5089732;28;20611;-51
2023/06/01 06:17:18;;;;;;;7.22;4.85;;;16.70;47.00;;;;;;5109224;28;20095;-52
2023/06/01 06:19:44;;;;;;;8.75;4.45;;;16.50;47.60;;;;;;5087461;28;20089;-53
2023/06/01 06:22:10;;;;;;;6.93;4.63;;;16.40;49.10;;;;;;5108495;28;20479;-50
2023/06/01 06:24:35;;;;;;;7.78;4.55;;;16.20;51.30;;;;;;5087539;28;20035;-52
2023/06/01 06:27:02;;;;;;;7.03;4.25;;;16.10;53.00;;;;;;5107902;28;20272;-54
2023/06/01 06:29:36;;;;;;;6.43;3.75;;;16.10;53.60;;;;;;5105208;27;20424;-54
2023/06/01 06:32:02;;;;;;;8.38;4.43;;;16.10;54.30;;;;;;5124816;27;20016;-52
2023/06/01 06:34:35;;;;;;;7.47;4.53;;;16.00;56.20;;;;;;5103233;28;20070;-48
2023/06/01 06:37:02;;;;;;;6.97;4.40;;;15.90;56.70;;;;;;5108529;27;20031;-52
2023/06/01 06:39:27;;;;;;;7.43;4.10;;;16.10;55.10;;;;;;5105724;27;20028;-54
2023/06/01 06:41:53;;;;;;;8.73;4.20;;;16.90;53.20;;;;;;5112376;27;20419;-50
2023/06/01 06:44:18;;;;;;;6.07;3.28;;;17.40;51.50;;;;;;5113343;27;20457;-50
2023/06/01 06:46:44;;;;;;;7.70;3.75;;;17.70;49.60;;;;;;5103081;28;20459;-52
2023/06/01 06:49:09;;;;;;;5.88;3.70;;;17.80;48.80;;;;;;5124998;28;20463;-52
2023/06/01 06:51:37;;;;;;;7.10;3.60;;;17.90;47.90;;;;;;5101710;28;20419;-52
2023/06/01 06:54:05;;;;;;;7.15;3.15;;;17.90;47.40;;;;;;5104834;28;20023;-54
2023/06/01 06:56:30;;;;;;;6.72;3.38;;;17.90;47.80;;;;;;5105234;28;20032;-53
2023/06/01 06:58:56;;;;;;;6.35;3.50;;;17.90;47.00;;;;;;5102990;28;20023;-53
2023/06/01 07:01:24;;;;;;;8.30;3.65;;;17.90;46.70;;;;;;5124503;28;20038;-50
2023/06/01 07:03:51;;;;;;;6.05;2.92;;;17.90;46.30;;;;;;5103333;27;20016;-53
2023/06/01 07:06:17;;;;;;;5.90;3.30;;;18.00;46.00;;;;;;5119787;27;20024;-52
2023/06/01 07:08:42;;;;;;;6.75;4.00;;;18.10;45.40;;;;;;5101269;27;20043;-49
2023/06/01 07:11:08;;;;;;;7.95;3.53;;;18.30;44.80;;;;;;5110337;27;20024;-53
2023/06/01 07:13:33;;;;;;;7.72;3.65;;;18.40;44.00;;;;;;5116463;28;20098;-54
2023/06/01 07:15:59;;;;;;;6.20;3.33;;;18.50;43.00;;;;;;5104785;28;20395;-52
2023/06/01 07:18:24;;;;;;;3.30;2.65;;;19.80;41.00;;;;;;5109922;28;20555;-50
2023/06/01 07:20:50;;;;;;;5.57;2.97;;;22.30;35.00;;;;;;5125993;27;20027;-49
2023/06/01 07:23:16;;;;;;;4.13;2.85;;;24.80;27.30;;;;;;5104167;28;20301;-48
2023/06/01 07:25:41;;;;;;;5.45;2.50;;;26.50;21.00;;;;;;5124897;27;20015;-49
2023/06/01 07:28:08;;;;;;;5.30;2.05;;;28.00;16.70;;;;;;5111234;28;20561;-49
2023/06/01 07:30:34;;;;;;;3.83;2.33;;;29.40;16.20;;;;;;5125943;27;20024;-52
2023/06/01 07:33:00;;;;;;;6.32;2.85;;;30.70;13.40;;;;;;5103747;27;20028;-51
2023/06/01 07:35:25;;;;;;;4.80;2.58;;;31.10;11.10;;;;;;5124992;27;20583;-53
2023/06/01 07:37:51;;;;;;;4.43;2.38;;;31.80;9.50;;;;;;5103912;28;20024;-48
2023/06/01 07:40:16;;;;;;;6.70;2.38;;;31.60;8.00;;;;;;5115120;28;20118;-47
2023/06/01 07:42:42;;;;;;;3.88;2.25;;;30.70;9.30;;;;;;5090159;28;20051;-50
2023/06/01 07:45:08;;;;;;;6.15;2.70;;;30.10;9.30;;;;;;5111193;28;20033;-51
2023/06/01 07:47:34;;;;;;;7.40;2.90;;;29.60;9.60;;;;;;5087935;27;20510;-50
2023/06/01 07:50:00;;;;;;;4.85;2.15;;;29.30;9.10;;;;;;5111785;28;20019;-48
2023/06/01 07:52:25;;;;;;;4.88;2.70;;;29.90;8.70;;;;;;5092009;28;20396;-48
2023/06/01 07:54:51;;;;;;;3.55;2.20;;;30.40;8.20;;;;;;5089713;28;20036;-49
2023/06/01 07:57:17;;;;;;;5.15;2.35;;;29.90;7.00;;;;;;5109590;28;20517;-50
2023/06/01 07:59:43;;;;;;;4.32;2.60;;;29.30;7.70;;;;;;5089855;28;20035;-51
2023/06/01 08:02:10;;;;;;;3.88;2.35;;;28.80;7.50;;;;;;5110843;28;20031;-51
2023/06/01 08:04:37;;;;;;;4.13;2.15;;;29.30;7.60;;;;;;5087896;28;20028;-50
2023/06/01 08:07:03;;;;;;;3.40;2.30;;;29.60;6.00;;;;;;5111402;28;20020;-48
2023/06/01 08:09:29;;;;;;;3.90;2.30;;;30.10;6.40;;;;;;5089678;28;20036;-52
2023/06/01 08:11:55;;;;;;;5.40;2.50;;;30.60;5.60;;;;;;5107338;28;20601;-49
2023/06/01 08:14:20;;;;;;;4.43;2.42;;;31.20;4.80;;;;;;5090088;28;20020;-52
2023/06/01 08:16:46;;;;;;;4.22;2.47;;;31.40;4.30;;;;;;5108505;28;20039;-48
2023/06/01 08:19:11;;;;;;;4.32;2.25;;;31.70;4.10;;;;;;5091582;28;20024;-51
2023/06/01 08:21:37;;;;;;;3.50;2.15;;;31.80;3.10;;;;;;5108473;28;20530;-51
2023/06/01 08:24:03;;;;;;;6.18;2.20;;;31.50;3.40;;;;;;5091113;28;20030;-50
2023/06/01 08:26:29;;;;;;;4.20;2.10;;;31.60;3.30;;;;;;5108547;28;20024;-52
2023/06/01 08:28:55;;;;;;;6.20;2.22;;;31.40;3.10;;;;;;5107600;28;20054;-50
2023/06/01 08:31:22;;;;;;;4.07;2.20;;;31.20;3.20;;;;;;5110921;27;20043;-52
2023/06/01 08:33:48;;;;;;;3.63;2.33;;;31.10;3.40;;;;;;5091497;28;20466;-52
2023/06/01 08:36:15;;;;;;;3.92;2.08;;;30.80;3.30;;;;;;5111076;28;20023;-51
2023/06/01 08:38:41;;;;;;;3.83;2.28;;;30.40;3.60;;;;;;5090208;28;20067;-53
2023/06/01 08:41:36;;;;;;;4.22;2.33;;;30.10;3.90;;;;;;5110812;28;20466;-51
2023/06/01 08:44:03;;;;;;;5.18;2.13;;;30.00;1.70;;;;;;5075425;28;20055;-48
2023/06/01 08:46:31;;;;;;;3.60;2.00;;;29.90;3.90;;;;;;5110806;28;20019;-51
2023/06/01 08:48:58;;;;;;;3.45;2.10;;;29.90;4.20;;;;;;5088667;28;20212;-47
2023/06/01 08:51:25;;;;;;;2.40;1.80;;;29.60;4.10;;;;;;5107186;28;20030;-52
2023/06/01 08:53:52;;;;;;;5.35;2.17;;;29.40;3.70;;;;;;5089619;28;20055;-53
2023/06/01 08:56:19;;;;;;;5.18;2.20;;;29.00;4.20;;;;;;5109726;28;20319;-53
2023/06/01 08:58:45;;;;;;;6.45;2.47;;;28.70;4.60;;;;;;5088565;28;20431;-52
2023/06/01 09:01:18;;;;;;;6.18;2.83;;;28.30;4.90;;;;;;5107807;28;20023;-53
2023/06/01 09:03:44;;;;;;;3.83;2.15;;;28.20;4.90;;;;;;5069802;28;20028;-53
2023/06/01 09:06:10;;;;;;;4.50;2.90;;;28.10;5.30;;;;;;5101582;28;20024;-52
2023/06/01 09:08:35;;;;;;;4.60;2.45;;;27.90;5.30;;;;;;5098281;28;20101;-49
2023/06/01 09:11:01;;;;;;;5.07;2.70;;;27.50;5.60;;;;;;5091930;28;20047;-52
2023/06/01 09:13:37;;;;;;;4.20;2.17;;;27.20;6.10;;;;;;5110430;28;20422;-53
2023/06/01 09:16:04;;;;;;;6.90;2.65;;;27.30;6.10;;;;;;5091915;28;20019;-53
2023/06/01 09:18:30;;;;;;;5.75;2.28;;;27.40;6.30;;;;;;5110135;28;20030;-50
2023/06/01 09:21:10;;;;;;;4.78;2.38;;;27.30;6.20;;;;;;5091108;28;20047;-51
2023/06/01 09:23:35;;;;;;;5.32;2.53;;;27.30;5.50;;;;;;5110179;28;20034;-53
2023/06/01 09:26:09;;;;;;;3.83;2.10;;;27.20;6.00;;;;;;5094141;28;20032;-54
2023/06/01 09:28:56;;;;;;;6.35;2.03;;;27.40;5.60;;;;;;5098346;28;20272;-59
2023/06/01 09:31:36;;;;;;;4.50;2.30;;;27.40;5.10;;;;;;5106383;28;20064;-59
2023/06/01 09:34:02;;;;;;;6.10;2.40;;;27.30;5.30;;;;;;5089487;28;20074;-59
2023/06/01 09:36:27;;;;;;;4.05;2.28;;;27.20;5.60;;;;;;5095870;28;20032;-59
2023/06/01 09:39:04;;;;;;;3.50;2.25;;;27.10;5.70;;;;;;5098104;28;20089;-59
2023/06/01 09:41:52;;;;;;;5.68;2.53;;;27.20;5.50;;;;;;5089241;28;20016;-58
2023/06/01 09:44:30;;;;;;;5.82;2.10;;;27.10;5.70;;;;;;5107329;28;20024;-58
2023/06/01 09:47:06;;;;;;;4.88;2.00;;;27.10;5.60;;;;;;5068888;28;20377;-58
2023/06/01 09:49:39;;;;;;;4.03;2.53;;;27.10;5.40;;;;;;5087155;28;20036;-59
2023/06/01 09:52:04;;;;;;;4.55;2.28;;;27.00;5.40;;;;;;5069099;28;20043;-58
2023/06/01 09:54:32;;;;;;;4.20;2.45;;;26.90;5.00;;;;;;5094280;28;20102;-58
2023/06/01 09:57:01;;;;;;;5.82;2.17;;;26.80;5.00;;;;;;5109509;28;20050;-58
2023/06/01 09:59:28;;;;;;;3.83;2.20;;;26.60;4.90;;;;;;5087396;28;20044;-59
2023/06/01 10:01:58;;;;;;;4.88;2.50;;;26.50;4.90;;;;;;5108703;28;20702;-58
2023/06/01 10:04:28;;;;;;;4.90;2.70;;;26.30;5.30;;;;;;5087526;28;20024;-56
2023/06/01 10:06:56;;;;;;;6.30;2.53;;;25.90;5.50;;;;;;5103218;28;20180;-56
2023/06/01 10:09:24;;;;;;;7.22;2.75;;;25.30;6.50;;;;;;5089829;28;20114;-57
2023/06/01 10:11:53;;;;;;;7.35;3.38;;;24.70;7.30;;;;;;5107606;28;20102;-55
2023/06/01 10:14:19;;;;;;;5.40;2.90;;;24.40;8.20;;;;;;5088906;28;20122;-58
2023/06/01 10:16:45;;;;;;;7.78;3.88;;;24.00;8.20;;;;;;5108691;28;20048;-58
2023/06/01 10:19:11;;;;;;;5.00;2.65;;;23.60;9.40;;;;;;5107335;28;20212;-58
2023/06/01 10:21:39;;;;;;;6.28;3.25;;;23.40;10.50;;;;;;5089231;28;20040;-58
2023/06/01 10:24:06;;;;;;;9.20;2.47;;;23.30;9.50;;;;;;5087967;28;20031;-58
2023/06/01 10:26:39;;;;;;;5.90;2.90;;;23.20;9.70;;;;;;5108547;28;20039;-58
2023/06/01 10:29:05;;;;;;;5.72;2.67;;;23.20;11.00;;;;;;5085625;28;20396;-57
2023/06/01 10:31:42;;;;;;;6.65;2.63;;;23.10;9.90;;;;;;5087002;28;20032;-56
2023/06/01 10:34:09;;;;;;;7.40;3.25;;;23.00;11.10;;;;;;5108758;28;20031;-58
2023/06/01 10:36:53;;;;;;;5.97;3.50;;;22.70;11.60;;;;;;5068583;28;20040;-58
2023/06/01 10:39:30;;;;;;;4.93;2.63;;;22.70;12.60;;;;;;5099476;28;20107;-59
2023/06/01 10:41:58;;;;;;;5.85;3.03;;;22.60;12.40;;;;;;5088498;28;20479;-57
2023/06/01 10:44:47;;;;;;;7.07;3.00;;;22.60;11.90;;;;;;5099923;28;20032;-58
2023/06/01 10:47:12;;;;;;;7.38;3.08;;;22.60;12.60;;;;;;5059219;28;20040;-58
2023/06/01 10:50:04;;;;;;;5.53;2.60;;;22.60;11.40;;;;;;5108954;28;20028;-58
2023/06/01 10:52:40;;;;;;;4.28;2.40;;;22.60;13.20;;;;;;5068784;28;20044;-56
2023/06/01 10:55:06;;;;;;;5.88;2.90;;;22.50;11.50;;;;;;5086466;28;20110;-56
2023/06/01 10:57:35;;;;;;;4.95;2.63;;;22.50;12.90;;;;;;5107395;28;20118;-58
2023/06/01 11:00:17;;;;;;;7.55;3.25;;;22.40;11.80;;;;;;5088657;28;20016;-57
2023/06/01 11:02:52;;;;;;;6.90;3.47;;;22.40;12.60;;;;;;5070694;28;20082;-57
2023/06/01 11:05:39;;;;;;;4.17;2.60;;;22.40;12.20;;;;;;5090096;28;20032;-57
2023/06/01 11:08:28;;;;;;;5.47;3.00;;;22.30;13.30;;;;;;5088528;28;20028;-58
2023/06/01 11:10:56;;;;;;;6.53;3.17;;;22.30;12.30;;;;;;5079918;28;20024;-58
2023/06/01 11:13:27;;;;;;;9.13;3.10;;;22.30;13.00;;;;;;5093865;28;20020;-58
2023/06/01 11:16:25;;;;;;;7.50;3.72;;;22.20;13.00;;;;;;5082000;28;20820;-57
2023/06/01 11:19:00;;;;;;;5.10;3.05;;;22.00;14.40;;;;;;5071815;28;20029;-57
2023/06/01 11:21:30;;;;;;;6.05;3.78;;;22.00;13.30;;;;;;5081184;28;20392;-58
2023/06/01 11:23:57;;;;;;;6.03;3.63;;;21.50;14.60;;;;;;5101415;28;20403;-58
2023/06/01 11:26:29;;;;;;;5.90;3.58;;;21.40;15.00;;;;;;5112542;27;20166;-57
2023/06/01 11:29:05;;;;;;;6.88;3.00;;;21.50;14.90;;;;;;5080985;28;20048;-59
2023/06/01 11:31:36;;;;;;;7.13;3.60;;;21.60;14.70;;;;;;5095383;28;20375;-57
2023/06/01 11:34:03;;;;;;;6.15;3.55;;;21.40;15.30;;;;;;5089978;28;20140;-58
2023/06/01 11:36:29;;;;;;;7.55;2.90;;;21.40;15.50;;;;;;5103551;28;20051;-57
2023/06/01 11:38:57;;;;;;;6.75;3.30;;;21.40;15.20;;;;;;5095009;28;20024;-58
2023/06/01 11:41:23;;;;;;;5.13;2.90;;;21.50;14.80;;;;;;5094296;28;20027;-57
2023/06/01 11:43:56;;;;;;;7.50;2.83;;;21.60;14.80;;;;;;5110489;28;20453;-55
2023/06/01 11:46:23;;;;;;;5.70;2.78;;;21.60;15.40;;;;;;5089777;28;20560;-58
2023/06/01 11:49:02;;;;;;;5.82;3.25;;;21.70;14.70;;;;;;5095211;28;20059;-58
2023/06/01 11:51:31;;;;;;;11.48;3.55;;;21.70;15.50;;;;;;5071077;28;20024;-58
2023/06/01 11:53:57;;;;;;;7.85;3.25;;;21.60;15.60;;;;;;5094580;28;20043;-58
2023/06/01 11:56:34;;;;;;;6.63;3.22;;;21.70;15.30;;;;;;5111238;28;20028;-58
2023/06/01 11:59:02;;;;;;;6.65;3.47;;;21.60;15.80;;;;;;5087800;28;20480;-58
2023/06/01 12:01:28;;;;;;;5.15;3.00;;;21.50;15.20;;;;;;5089381;28;20032;-56
2023/06/01 12:03:56;;;;;;;8.68;3.38;;;21.40;15.60;;;;;;5089492;28;20039;-58
2023/06/01 12:06:23;;;;;;;7.03;3.70;;;21.50;16.30;;;;;;5084691;28;20495;-58
2023/06/01 12:08:52;;;;;;;6.68;3.40;;;21.50;15.50;;;;;;5097243;28;20040;-58
2023/06/01 12:11:28;;;;;;;4.97;3.28;;;21.60;15.40;;;;;;5111136;28;20024;-58
2023/06/01 12:13:58;;;;;;;5.38;3.17;;;21.50;15.30;;;;;;5081776;28;20048;-58
2023/06/01 12:16:25;;;;;;;7.45;3.10;;;21.50;15.00;;;;;;5111368;28;20042;-58
2023/06/01 12:18:51;;;;;;;6.95;3.40;;;21.60;15.60;;;;;;5089694;28;20480;-58
2023/06/01 12:21:17;;;;;;;5.82;3.53;;;21.60;15.80;;;;;;5091226;28;20028;-57
2023/06/01 12:23:48;;;;;;;4.80;3.40;;;21.50;15.60;;;;;;5108548;28;20030;-58
2023/06/01 12:26:14;;;;;;;4.43;3.20;;;21.50;15.50;;;;;;5077110;28;20678;-58
2023/06/01 12:28:54;;;;;;;5.90;3.70;;;21.60;15.50;;;;;;5093964;28;20126;-58
2023/06/01 12:31:20;;;;;;;5.85;3.70;;;21.70;16.00;;;;;;5069504;28;20029;-58
2023/06/01 12:33:50;;;;;;;10.43;4.45;;;21.70;15.20;;;;;;5074547;28;20056;-57
2023/06/01 12:36:33;;;;;;;8.82;3.78;;;21.70;16.20;;;;;;5107667;28;20554;-58
2023/06/01 12:38:59;;;;;;;4.93;3.78;;;21.60;16.10;;;;;;5066851;28;20091;-58
2023/06/01 12:41:25;;;;;;;9.20;4.72;;;21.70;16.00;;;;;;5098877;28;20059;-58
2023/06/01 12:43:51;;;;;;;6.22;3.50;;;21.70;15.60;;;;;;5077372;28;20487;-58
2023/06/01 12:46:23;;;;;;;8.80;4.10;;;21.80;15.60;;;;;;5080201;28;20024;-57
2023/06/01 12:48:51;;;;;;;9.65;4.28;;;21.70;14.90;;;;;;5080236;28;20036;-58
2023/06/01 12:51:17;;;;;;;4.88;3.35;;;21.70;15.10;;;;;;5106934;28;20031;-58
2023/06/01 12:53:42;;;;;;;4.97;3.65;;;21.70;15.40;;;;;;5085578;28;20039;-58
2023/06/01 12:56:08;;;;;;;5.35;4.28;;;21.70;15.50;;;;;;5099647;28;20093;-58